Time;durP1;ratioP1;P1;durP2;ratioP2;P2;SDS_P1;SDS_P2;PMS_P1;PMS_P2;Temp;Humidity;BMP_temperature;BMP_pressure;BME280_temperature;BME280_humidity;BME280_pressure;Samples;Min_cycle;Max_cycle;Signal;HPM_P1;HPM_P2
2021/08/21 00:00:18;;;;;;;22.35;8.95;;;11.50;98.20;;;;;;5033644;28;20064;-72
2021/08/21 00:02:43;;;;;;;18.17;8.45;;;11.50;98.30;;;;;;5028501;28;20082;-72
2021/08/21 00:05:09;;;;;;;18.48;8.15;;;11.50;98.30;;;;;;5030243;28;20472;-72
2021/08/21 00:07:35;;;;;;;19.45;8.32;;;11.50;98.30;;;;;;5035729;28;20033;-72
2021/08/21 00:10:04;;;;;;;21.63;8.90;;;11.40;98.20;;;;;;5043857;28;20121;-72
2021/08/21 00:12:30;;;;;;;15.88;8.20;;;11.40;98.20;;;;;;5030758;28;20037;-72
2021/08/21 00:14:56;;;;;;;24.10;9.95;;;11.30;98.10;;;;;;5039153;28;20028;-72
2021/08/21 00:17:22;;;;;;;19.73;9.20;;;11.30;98.10;;;;;;5031502;28;20041;-72
2021/08/21 00:19:48;;;;;;;23.90;9.32;;;11.30;98.20;;;;;;5039521;28;20029;-72
2021/08/21 00:22:13;;;;;;;24.85;9.73;;;11.30;98.20;;;;;;5031443;28;20030;-72
2021/08/21 00:24:40;;;;;;;21.92;9.30;;;11.30;98.10;;;;;;5034466;28;20036;-72
2021/08/21 00:27:06;;;;;;;17.90;9.00;;;11.20;98.10;;;;;;5023105;28;20072;-72
2021/08/21 00:29:32;;;;;;;19.20;9.13;;;11.20;98.00;;;;;;5032895;28;20142;-72
2021/08/21 00:31:58;;;;;;;26.45;10.23;;;11.30;98.20;;;;;;5034914;28;20045;-72
2021/08/21 00:34:23;;;;;;;20.27;9.15;;;11.40;98.30;;;;;;5040666;28;20099;-72
2021/08/21 00:36:49;;;;;;;27.75;10.27;;;11.50;98.30;;;;;;5029340;28;20431;-72
2021/08/21 00:39:15;;;;;;;30.10;11.10;;;11.50;98.30;;;;;;5032160;28;20065;-72
2021/08/21 00:41:41;;;;;;;22.38;10.55;;;11.60;98.30;;;;;;5039486;28;20029;-72
2021/08/21 00:44:07;;;;;;;22.58;10.32;;;11.70;98.30;;;;;;5039382;28;20032;-72
2021/08/21 00:46:52;;;;;;;24.13;9.77;;;11.80;98.40;;;;;;5032447;28;20033;-72
2021/08/21 00:49:18;;;;;;;19.40;9.38;;;11.90;98.40;;;;;;5036211;28;20025;-72
2021/08/21 00:51:43;;;;;;;22.70;9.48;;;12.00;98.40;;;;;;5039112;28;20048;-72
2021/08/21 00:54:09;;;;;;;26.52;11.63;;;12.00;98.40;;;;;;5032918;28;20076;-72
2021/08/21 00:56:34;;;;;;;26.48;12.35;;;12.10;98.50;;;;;;5040842;28;20357;-73
2021/08/21 00:59:02;;;;;;;25.92;12.50;;;12.20;98.50;;;;;;5033269;28;20067;-72
2021/08/21 01:01:28;;;;;;;28.38;12.52;;;12.20;98.60;;;;;;5032236;28;20026;-72
2021/08/21 01:03:53;;;;;;;26.50;12.18;;;12.30;98.60;;;;;;5033413;28;20021;-72
2021/08/21 01:06:19;;;;;;;25.52;10.85;;;12.30;98.50;;;;;;5036000;28;20026;-72
2021/08/21 01:08:45;;;;;;;23.55;11.05;;;12.30;98.50;;;;;;5038724;28;20181;-72
2021/08/21 01:11:10;;;;;;;22.95;11.40;;;12.50;98.70;;;;;;5039891;28;20044;-72
2021/08/21 01:13:37;;;;;;;19.05;10.25;;;12.40;98.50;;;;;;5037570;28;20095;-72
2021/08/21 01:16:03;;;;;;;19.13;9.77;;;12.40;98.40;;;;;;5038285;28;20021;-72
2021/08/21 01:18:29;;;;;;;23.83;11.02;;;12.40;98.40;;;;;;5033415;28;20426;-70
2021/08/21 01:20:55;;;;;;;18.75;10.18;;;12.50;98.40;;;;;;5027676;28;20033;-70
2021/08/21 01:23:21;;;;;;;19.58;10.10;;;12.50;98.40;;;;;;5034451;28;20036;-70
2021/08/21 01:25:46;;;;;;;18.85;10.27;;;12.50;98.40;;;;;;5033694;28;20047;-70
2021/08/21 01:28:12;;;;;;;17.90;10.02;;;12.50;98.30;;;;;;5033098;28;20214;-70
2021/08/21 01:30:38;;;;;;;21.38;10.18;;;12.50;98.30;;;;;;5037237;28;20094;-70
2021/08/21 01:33:03;;;;;;;20.20;9.07;;;12.50;98.30;;;;;;5036211;28;20056;-70
2021/08/21 01:35:29;;;;;;;19.15;9.48;;;12.50;98.30;;;;;;5037219;28;20032;-70
2021/08/21 01:37:54;;;;;;;16.20;9.48;;;12.60;98.30;;;;;;5035884;28;20142;-70
2021/08/21 01:40:20;;;;;;;17.55;9.48;;;12.60;98.30;;;;;;5046279;28;20024;-70
2021/08/21 01:42:46;;;;;;;15.85;8.40;;;12.60;98.30;;;;;;5041430;28;20036;-70
2021/08/21 01:45:13;;;;;;;23.58;10.25;;;12.50;98.20;;;;;;5042419;28;20299;-70
2021/08/21 01:47:44;;;;;;;18.60;9.77;;;12.50;98.30;;;;;;5040049;28;20037;-70
2021/08/21 01:50:16;;;;;;;21.58;10.10;;;12.50;98.30;;;;;;5043421;28;20069;-69
2021/08/21 01:52:43;;;;;;;17.58;9.85;;;12.50;98.30;;;;;;5031813;28;20069;-70
2021/08/21 01:55:10;;;;;;;18.27;9.13;;;12.40;98.30;;;;;;5029158;28;20043;-70
2021/08/21 01:57:39;;;;;;;16.38;9.93;;;12.50;98.40;;;;;;5040384;28;20021;-70
2021/08/21 02:00:05;;;;;;;22.92;10.85;;;12.40;98.40;;;;;;5036380;28;20158;-70
2021/08/21 02:02:31;;;;;;;21.38;10.52;;;12.40;98.40;;;;;;5036883;28;20058;-70
2021/08/21 02:04:56;;;;;;;19.98;10.02;;;12.50;98.50;;;;;;5032079;28;20467;-70
2021/08/21 02:07:22;;;;;;;26.00;11.50;;;12.50;98.60;;;;;;5040800;28;20120;-70
2021/08/21 02:09:48;;;;;;;27.38;12.60;;;12.50;98.50;;;;;;5043956;28;20120;-70
2021/08/21 02:12:16;;;;;;;33.03;13.60;;;12.50;98.70;;;;;;5032229;28;20495;-69
2021/08/21 02:14:41;;;;;;;30.90;12.63;;;12.50;98.60;;;;;;5030585;28;20049;-69
2021/08/21 02:17:07;;;;;;;29.58;12.60;;;12.50;98.60;;;;;;5038418;28;20074;-69
2021/08/21 02:19:33;;;;;;;30.63;12.68;;;12.50;98.60;;;;;;5039579;28;20057;-69
2021/08/21 02:22:01;;;;;;;32.95;13.50;;;12.50;98.70;;;;;;5038117;28;20032;-69
2021/08/21 02:24:27;;;;;;;35.38;14.20;;;12.50;98.70;;;;;;5038248;28;20079;-70
2021/08/21 02:26:58;;;;;;;28.27;12.60;;;12.50;98.70;;;;;;5044199;28;20504;-69
2021/08/21 02:29:25;;;;;;;36.97;13.20;;;12.50;98.60;;;;;;5030451;28;20467;-69
2021/08/21 02:31:50;;;;;;;34.50;13.90;;;12.50;98.70;;;;;;5043468;28;20032;-69
2021/08/21 02:34:16;;;;;;;31.85;13.55;;;12.50;98.70;;;;;;5038277;28;20025;-69
2021/08/21 02:36:43;;;;;;;37.50;14.25;;;12.50;98.70;;;;;;5031750;28;20029;-69
2021/08/21 02:39:09;;;;;;;38.90;13.68;;;12.50;98.70;;;;;;5037060;28;20038;-69
2021/08/21 02:41:35;;;;;;;44.97;15.38;;;12.50;98.70;;;;;;5039417;28;20037;-69
2021/08/21 02:44:01;;;;;;;42.00;14.10;;;12.50;98.80;;;;;;5037880;28;20216;-69
2021/08/21 02:46:27;;;;;;;34.70;13.30;;;12.60;98.80;;;;;;5030045;28;20381;-69
2021/08/21 02:48:52;;;;;;;30.63;12.75;;;12.50;98.70;;;;;;5040047;28;20025;-70
2021/08/21 02:51:18;;;;;;;31.73;12.82;;;12.50;98.70;;;;;;5040018;28;20569;-69
2021/08/21 02:53:44;;;;;;;28.75;11.80;;;12.50;98.70;;;;;;5038145;28;20041;-70
2021/08/21 02:56:09;;;;;;;28.23;11.63;;;12.40;98.60;;;;;;5039561;28;20022;-69
2021/08/21 02:58:35;;;;;;;29.90;11.13;;;12.40;98.50;;;;;;5038058;28;20032;-70
2021/08/21 03:01:00;;;;;;;27.15;10.70;;;12.50;98.60;;;;;;5040489;28;20044;-69
2021/08/21 03:03:26;;;;;;;29.98;12.60;;;12.40;98.60;;;;;;5037003;28;20078;-70
2021/08/21 03:05:52;;;;;;;35.05;12.38;;;12.50;98.70;;;;;;5042036;28;20341;-70
2021/08/21 03:08:17;;;;;;;28.15;11.45;;;12.50;98.60;;;;;;5036117;28;20097;-69
2021/08/21 03:10:43;;;;;;;28.20;11.15;;;12.50;98.60;;;;;;5041695;28;20128;-69
2021/08/21 03:13:08;;;;;;;26.30;10.65;;;12.50;98.70;;;;;;5037278;28;20322;-69
2021/08/21 03:15:34;;;;;;;28.40;10.95;;;12.60;98.70;;;;;;5040020;28;20075;-69
2021/08/21 03:17:59;;;;;;;24.50;10.55;;;12.50;98.60;;;;;;5033476;28;20060;-69
2021/08/21 03:20:27;;;;;;;19.55;8.70;;;12.60;98.70;;;;;;5033450;28;20037;-69
2021/08/21 03:22:53;;;;;;;15.52;8.25;;;12.60;98.70;;;;;;5029609;28;20025;-69
2021/08/21 03:25:19;;;;;;;17.65;8.68;;;12.50;98.60;;;;;;5033878;28;20486;-70
2021/08/21 03:27:45;;;;;;;17.33;8.05;;;12.50;98.70;;;;;;5038390;28;20029;-70
2021/08/21 03:30:11;;;;;;;15.50;8.32;;;12.60;98.70;;;;;;5043736;28;20025;-69
2021/08/21 03:32:37;;;;;;;18.80;8.43;;;12.60;98.60;;;;;;5030103;28;20017;-69
2021/08/21 03:35:03;;;;;;;16.88;8.65;;;12.60;98.60;;;;;;5043013;28;20035;-69
2021/08/21 03:37:29;;;;;;;15.45;8.60;;;12.70;98.50;;;;;;5033226;28;20105;-70
2021/08/21 03:39:55;;;;;;;15.90;7.97;;;12.60;98.50;;;;;;5025658;28;20424;-69
2021/08/21 03:42:21;;;;;;;14.75;7.50;;;12.60;98.50;;;;;;5027487;28;20035;-69
2021/08/21 03:44:47;;;;;;;18.13;8.13;;;12.60;98.50;;;;;;5043442;28;20205;-70
2021/08/21 03:47:12;;;;;;;14.15;7.20;;;12.60;98.40;;;;;;5034716;28;20025;-70
2021/08/21 03:49:38;;;;;;;14.10;7.30;;;12.60;98.40;;;;;;5039605;28;20397;-70
2021/08/21 03:52:04;;;;;;;15.05;7.85;;;12.60;98.30;;;;;;5038146;28;20025;-70
2021/08/21 03:54:30;;;;;;;16.42;8.60;;;12.60;98.30;;;;;;5031267;28;20030;-70
2021/08/21 03:56:56;;;;;;;17.20;8.80;;;12.60;98.30;;;;;;5036625;28;20021;-70
2021/08/21 03:59:21;;;;;;;21.52;8.82;;;12.70;98.30;;;;;;5042354;28;20044;-70
2021/08/21 04:01:47;;;;;;;20.00;9.32;;;12.70;98.40;;;;;;5038939;28;20468;-69
2021/08/21 04:04:13;;;;;;;21.08;9.45;;;12.70;98.30;;;;;;5038797;28;20033;-69
2021/08/21 04:06:40;;;;;;;23.20;10.07;;;12.70;98.40;;;;;;5036473;28;20033;-70
2021/08/21 04:09:06;;;;;;;20.20;10.07;;;12.70;98.40;;;;;;5037836;28;20152;-69
2021/08/21 04:11:32;;;;;;;23.58;10.70;;;12.70;98.40;;;;;;5035437;28;20115;-70
2021/08/21 04:13:58;;;;;;;22.55;9.85;;;12.70;98.40;;;;;;5044258;28;20025;-70
2021/08/21 04:16:23;;;;;;;27.10;12.93;;;12.80;98.50;;;;;;5038984;28;20091;-70
2021/08/21 04:18:49;;;;;;;35.67;16.50;;;12.80;98.50;;;;;;5037980;28;20052;-70
2021/08/21 04:21:15;;;;;;;33.28;15.77;;;12.80;98.50;;;;;;5029656;28;20104;-65
2021/08/21 04:23:40;;;;;;;31.10;12.82;;;12.80;98.50;;;;;;5041011;28;20066;-65
2021/08/21 04:26:06;;;;;;;25.60;11.35;;;12.80;98.50;;;;;;5037029;28;20091;-65
2021/08/21 04:28:32;;;;;;;31.15;12.65;;;12.80;98.50;;;;;;5036268;28;20105;-65
2021/08/21 04:30:58;;;;;;;32.40;15.15;;;12.80;98.50;;;;;;5041372;28;20025;-65
2021/08/21 04:33:24;;;;;;;31.33;13.48;;;12.80;98.50;;;;;;5033842;28;20622;-65
2021/08/21 04:35:51;;;;;;;32.78;14.25;;;12.90;98.50;;;;;;5030405;28;20353;-65
2021/08/21 04:38:17;;;;;;;32.55;14.35;;;12.90;98.50;;;;;;5037927;28;20021;-65
2021/08/21 04:40:46;;;;;;;33.28;13.90;;;12.90;98.50;;;;;;5030045;28;20037;-65
2021/08/21 04:43:12;;;;;;;35.28;14.23;;;12.90;98.50;;;;;;5038872;28;20082;-65
2021/08/21 04:45:38;;;;;;;32.50;13.27;;;12.90;98.50;;;;;;5032563;28;20108;-65
2021/08/21 04:48:04;;;;;;;27.83;11.85;;;13.00;98.50;;;;;;5036671;28;20333;-65
2021/08/21 04:50:29;;;;;;;21.17;12.13;;;13.00;98.50;;;;;;5042528;28;20460;-65
2021/08/21 04:52:55;;;;;;;26.42;12.48;;;13.00;98.40;;;;;;5033283;28;20135;-65
2021/08/21 04:55:21;;;;;;;25.85;11.40;;;13.00;98.40;;;;;;5040985;28;20029;-65
2021/08/21 04:57:46;;;;;;;25.92;12.75;;;13.00;98.30;;;;;;5036994;28;20024;-65
2021/08/21 05:00:13;;;;;;;23.23;12.38;;;13.00;98.40;;;;;;5032930;28;20148;-65
2021/08/21 05:02:38;;;;;;;22.48;11.98;;;13.10;98.20;;;;;;5028323;28;20025;-65
2021/08/21 05:05:04;;;;;;;22.85;11.70;;;13.10;98.20;;;;;;5038718;28;20052;-65
2021/08/21 05:07:30;;;;;;;24.13;12.50;;;13.10;98.10;;;;;;5038746;28;20029;-65
2021/08/21 05:09:56;;;;;;;21.95;10.82;;;13.20;98.10;;;;;;5037114;28;20336;-65
2021/08/21 05:12:21;;;;;;;23.77;12.02;;;13.30;98.10;;;;;;5028438;28;20686;-65
2021/08/21 05:14:47;;;;;;;28.05;12.15;;;13.30;98.00;;;;;;5037873;28;20586;-65
2021/08/21 05:17:12;;;;;;;19.85;10.73;;;13.40;98.00;;;;;;5035598;28;20056;-65
2021/08/21 05:19:41;;;;;;;23.13;11.27;;;13.30;97.90;;;;;;5034137;28;20040;-65
2021/08/21 05:22:25;;;;;;;20.95;11.10;;;13.40;97.70;;;;;;5020920;28;20040;-65
2021/08/21 05:24:51;;;;;;;24.05;10.82;;;13.50;97.80;;;;;;5035375;28;20045;-64
2021/08/21 05:27:18;;;;;;;20.38;10.73;;;13.60;97.70;;;;;;5025873;28;20036;-66
2021/08/21 05:29:44;;;;;;;21.20;10.57;;;13.60;97.60;;;;;;5032895;28;20126;-65
2021/08/21 05:32:09;;;;;;;18.85;10.60;;;13.60;97.40;;;;;;5036679;28;20104;-65
2021/08/21 05:34:35;;;;;;;15.98;10.20;;;13.80;97.40;;;;;;5040951;28;20044;-66
2021/08/21 05:37:00;;;;;;;13.18;8.85;;;13.90;97.20;;;;;;5032778;28;20067;-64
2021/08/21 05:39:27;;;;;;;16.00;9.77;;;13.80;96.80;;;;;;5038905;28;20195;-65
2021/08/21 05:41:52;;;;;;;17.88;8.77;;;13.90;96.70;;;;;;5033748;28;20071;-65
2021/08/21 05:44:18;;;;;;;16.30;9.10;;;14.00;96.60;;;;;;5032057;28;20041;-66
2021/08/21 05:46:43;;;;;;;13.70;7.82;;;14.10;96.60;;;;;;5035513;28;20064;-65
2021/08/21 05:49:09;;;;;;;13.88;8.05;;;14.10;96.40;;;;;;5036859;28;20077;-66
2021/08/21 05:51:35;;;;;;;12.02;7.35;;;14.20;96.50;;;;;;5031384;28;20013;-65
2021/08/21 05:54:00;;;;;;;15.70;7.07;;;14.20;96.30;;;;;;5038367;28;20021;-65
2021/08/21 05:56:26;;;;;;;10.88;6.70;;;14.10;96.00;;;;;;5032564;28;20056;-65
2021/08/21 05:58:52;;;;;;;13.00;5.95;;;14.30;96.20;;;;;;5041963;28;20412;-65
2021/08/21 06:01:17;;;;;;;11.73;6.15;;;14.40;96.10;;;;;;5031428;28;20056;-66
2021/08/21 06:03:43;;;;;;;10.73;6.30;;;14.40;96.00;;;;;;5033363;28;20076;-66
2021/08/21 06:06:12;;;;;;;13.43;5.68;;;14.50;95.70;;;;;;5042365;28;20131;-65
2021/08/21 06:08:39;;;;;;;10.00;5.35;;;14.50;95.40;;;;;;5036965;28;20068;-66
2021/08/21 06:11:04;;;;;;;8.63;4.55;;;14.50;95.30;;;;;;5036954;28;20387;-66
2021/08/21 06:13:30;;;;;;;6.70;4.22;;;14.60;95.10;;;;;;5035086;28;20024;-66
2021/08/21 06:15:56;;;;;;;8.73;4.68;;;14.60;94.90;;;;;;5038922;28;20111;-66
2021/08/21 06:18:22;;;;;;;7.05;4.30;;;14.60;94.90;;;;;;5034000;28;20475;-65
2021/08/21 06:20:47;;;;;;;7.47;4.10;;;14.70;95.10;;;;;;5041903;28;20112;-66
2021/08/21 06:23:13;;;;;;;10.15;3.80;;;14.70;95.10;;;;;;5037362;28;20120;-66
2021/08/21 06:25:39;;;;;;;8.07;4.53;;;14.80;94.80;;;;;;5042601;28;20029;-66
2021/08/21 06:28:05;;;;;;;6.43;3.70;;;14.70;94.30;;;;;;5033230;28;20473;-66
2021/08/21 06:30:30;;;;;;;7.95;3.83;;;14.90;94.60;;;;;;5041325;28;20401;-66
2021/08/21 06:32:56;;;;;;;6.93;3.55;;;14.90;94.10;;;;;;5037087;28;20037;-66
2021/08/21 06:35:21;;;;;;;7.70;3.35;;;15.00;94.60;;;;;;5039611;28;20048;-65
2021/08/21 06:37:47;;;;;;;8.63;4.10;;;15.10;94.60;;;;;;5035960;28;20400;-66
2021/08/21 06:40:13;;;;;;;8.77;3.40;;;15.30;94.90;;;;;;5034658;28;20033;-66
2021/08/21 06:42:39;;;;;;;5.70;3.60;;;15.20;94.00;;;;;;5037012;28;20041;-66
2021/08/21 06:45:05;;;;;;;6.13;3.20;;;15.30;93.80;;;;;;5038080;28;20106;-66
2021/08/21 06:47:31;;;;;;;6.03;3.20;;;15.30;93.40;;;;;;5031503;28;20204;-66
2021/08/21 06:49:56;;;;;;;5.38;3.13;;;15.50;93.90;;;;;;5034380;28;20079;-66
2021/08/21 06:52:23;;;;;;;3.22;2.35;;;15.60;93.70;;;;;;5036638;28;20104;-65
2021/08/21 06:54:48;;;;;;;5.72;2.75;;;15.70;93.20;;;;;;5032528;28;20025;-66
2021/08/21 06:57:14;;;;;;;5.28;2.67;;;15.70;92.90;;;;;;5034318;28;20075;-66
2021/08/21 06:59:40;;;;;;;5.95;2.50;;;15.60;92.30;;;;;;5036024;28;20059;-66
2021/08/21 07:02:05;;;;;;;4.50;2.30;;;15.80;92.80;;;;;;5034815;28;20026;-65
2021/08/21 07:04:31;;;;;;;5.32;2.22;;;15.90;92.60;;;;;;5033428;28;20207;-66
2021/08/21 07:06:57;;;;;;;5.75;2.20;;;15.70;91.80;;;;;;5033657;28;20456;-65
2021/08/21 07:09:22;;;;;;;2.92;2.00;;;15.80;91.60;;;;;;5041803;28;20510;-66
2021/08/21 07:11:49;;;;;;;6.25;2.30;;;15.90;92.00;;;;;;5034794;28;20021;-66
2021/08/21 07:14:15;;;;;;;2.92;2.10;;;15.60;90.70;;;;;;5032617;28;20025;-66
2021/08/21 07:16:41;;;;;;;4.85;2.25;;;15.60;91.30;;;;;;5030536;28;20078;-66
2021/08/21 07:19:07;;;;;;;4.72;2.20;;;15.70;90.80;;;;;;5033303;28;20060;-66
2021/08/21 07:21:33;;;;;;;3.92;1.95;;;15.80;91.00;;;;;;5027234;28;20029;-66
2021/08/21 07:23:59;;;;;;;3.28;1.95;;;15.90;91.40;;;;;;5035952;28;20510;-67
2021/08/21 07:26:25;;;;;;;4.90;2.10;;;16.00;91.20;;;;;;5038769;28;20034;-66
2021/08/21 07:28:50;;;;;;;3.55;1.83;;;16.00;90.30;;;;;;5033252;28;20478;-65
2021/08/21 07:31:17;;;;;;;7.30;2.25;;;16.10;90.30;;;;;;5040899;28;20097;-67
2021/08/21 07:33:43;;;;;;;2.88;1.52;;;16.30;91.00;;;;;;5038403;28;20247;-66
2021/08/21 07:36:09;;;;;;;3.90;1.55;;;16.30;89.90;;;;;;5040143;28;20021;-66
2021/08/21 07:38:35;;;;;;;4.80;1.88;;;16.60;90.50;;;;;;5027275;28;20078;-66
2021/08/21 07:41:01;;;;;;;4.13;1.55;;;16.20;89.10;;;;;;5033542;28;20466;-66
2021/08/21 07:43:26;;;;;;;5.28;2.10;;;16.40;89.10;;;;;;5037935;28;20403;-66
2021/08/21 07:45:52;;;;;;;4.25;1.67;;;16.40;88.90;;;;;;5034494;28;20047;-66
2021/08/21 07:48:18;;;;;;;3.47;1.65;;;16.60;89.10;;;;;;5038309;28;20112;-66
2021/08/21 07:50:44;;;;;;;2.70;1.50;;;16.50;88.10;;;;;;5040423;28;20182;-65
2021/08/21 07:53:10;;;;;;;3.55;1.40;;;16.80;88.60;;;;;;5033139;28;20131;-66
2021/08/21 07:55:36;;;;;;;2.88;1.55;;;16.80;88.70;;;;;;5038993;28;20033;-66
2021/08/21 07:58:03;;;;;;;4.68;1.70;;;17.00;88.50;;;;;;5037845;28;20763;-66
2021/08/21 08:00:29;;;;;;;3.70;1.55;;;17.00;87.10;;;;;;5037363;28;20075;-66
2021/08/21 08:02:55;;;;;;;6.30;1.80;;;17.10;87.00;;;;;;5033457;28;20080;-66
2021/08/21 08:05:21;;;;;;;3.63;1.50;;;17.20;87.40;;;;;;5036110;28;20627;-67
2021/08/21 08:07:46;;;;;;;2.78;1.50;;;17.20;86.20;;;;;;5039575;28;20025;-66
2021/08/21 08:10:12;;;;;;;2.65;1.50;;;17.10;85.80;;;;;;5038594;28;20059;-66
2021/08/21 08:12:37;;;;;;;4.72;1.60;;;17.00;85.90;;;;;;5029539;28;20109;-66
2021/08/21 08:15:04;;;;;;;2.83;1.73;;;16.90;86.40;;;;;;5038704;28;20082;-66
2021/08/21 08:17:29;;;;;;;3.28;1.40;;;17.20;87.70;;;;;;5031037;28;20034;-66
2021/08/21 08:19:55;;;;;;;4.13;1.52;;;17.10;85.40;;;;;;5026737;28;20127;-65
2021/08/21 08:22:21;;;;;;;5.10;1.50;;;17.10;86.30;;;;;;5029525;28;20110;-66
2021/08/21 08:24:47;;;;;;;6.18;1.83;;;17.10;86.00;;;;;;5030133;28;20043;-66
2021/08/21 08:27:15;;;;;;;3.15;2.00;;;17.30;85.60;;;;;;5034672;28;20033;-66
2021/08/21 08:29:40;;;;;;;4.28;2.03;;;17.30;85.90;;;;;;5031733;28;20047;-65
2021/08/21 08:32:06;;;;;;;3.22;1.50;;;17.50;85.50;;;;;;5031639;28;20033;-65
2021/08/21 08:34:32;;;;;;;3.60;1.60;;;17.80;86.00;;;;;;5027335;28;20368;-67
2021/08/21 08:36:58;;;;;;;2.97;1.60;;;18.00;84.60;;;;;;5023673;28;20029;-66
2021/08/21 08:39:23;;;;;;;3.05;1.60;;;18.10;85.30;;;;;;5025128;28;20018;-66
2021/08/21 08:41:50;;;;;;;3.17;1.55;;;17.90;83.70;;;;;;5031669;28;20021;-65
2021/08/21 08:44:16;;;;;;;3.60;1.40;;;17.90;84.20;;;;;;5033664;28;20065;-66
2021/08/21 08:46:42;;;;;;;3.38;1.40;;;18.10;84.70;;;;;;5026956;28;20036;-66
2021/08/21 08:49:09;;;;;;;4.43;1.88;;;18.30;84.20;;;;;;5029971;28;20385;-65
2021/08/21 08:51:35;;;;;;;4.50;1.35;;;18.30;82.90;;;;;;5031222;28;20025;-66
2021/08/21 08:54:01;;;;;;;5.57;1.60;;;18.60;83.80;;;;;;5033989;28;20136;-67
2021/08/21 08:56:27;;;;;;;1.67;1.27;;;18.90;84.60;;;;;;5027538;28;20489;-66
2021/08/21 08:58:53;;;;;;;2.55;1.23;;;18.60;82.50;;;;;;5033995;28;20135;-67
2021/08/21 09:01:20;;;;;;;4.43;1.50;;;18.50;81.80;;;;;;5033135;28;20616;-65
2021/08/21 09:03:47;;;;;;;8.10;1.67;;;18.50;82.90;;;;;;5030920;28;20029;-67
2021/08/21 09:06:13;;;;;;;4.03;1.40;;;18.50;82.00;;;;;;5033524;28;20033;-67
2021/08/21 09:08:40;;;;;;;2.80;1.27;;;18.30;81.90;;;;;;5024550;28;20048;-66
2021/08/21 09:11:22;;;;;;;4.20;1.50;;;18.50;82.30;;;;;;5035539;28;20055;-65
2021/08/21 09:13:50;;;;;;;2.90;1.63;;;18.70;82.30;;;;;;5024253;28;20017;-66
2021/08/21 09:16:28;;;;;;;2.15;1.05;;;19.00;82.50;;;;;;5035152;28;20041;-66
2021/08/21 09:19:06;;;;;;;3.55;1.15;;;18.90;81.60;;;;;;5026086;28;20025;-65
2021/08/21 09:21:33;;;;;;;4.78;1.20;;;18.80;81.30;;;;;;5026159;28;20029;-67
2021/08/21 09:23:59;;;;;;;2.45;1.17;;;19.00;82.50;;;;;;5026879;28;20515;-66
2021/08/21 09:26:35;;;;;;;2.45;1.40;;;19.00;83.20;;;;;;5027738;28;20037;-65
2021/08/21 09:29:02;;;;;;;4.72;1.73;;;18.80;82.10;;;;;;5032298;28;20040;-66
2021/08/21 09:31:33;;;;;;;2.90;1.45;;;18.80;82.60;;;;;;5033612;28;20044;-68
2021/08/21 09:34:00;;;;;;;;;;;19.00;82.50;;;;;;5029436;28;20036;-65
2021/08/21 09:36:36;;;;;;;3.22;1.27;;;19.10;82.60;;;;;;5027365;28;19915;-69
2021/08/21 09:39:06;;;;;;;3.20;1.30;;;19.00;82.30;;;;;;5025028;28;20123;-67
2021/08/21 09:41:55;;;;;;;2.30;1.13;;;19.10;81.10;;;;;;5027573;28;20052;-68
2021/08/21 09:44:29;;;;;;;3.40;1.55;;;19.00;80.20;;;;;;5029964;28;20140;-69
2021/08/21 09:47:23;;;;;;;4.15;1.60;;;19.20;80.90;;;;;;5029956;28;20024;-67
2021/08/21 09:49:50;;;;;;;2.45;1.38;;;19.20;80.50;;;;;;5023045;28;20510;-69
2021/08/21 09:52:16;;;;;;;3.20;1.30;;;19.20;80.30;;;;;;5024464;28;20037;-69
2021/08/21 09:54:45;;;;;;;2.95;1.50;;;19.30;80.70;;;;;;5023341;28;20059;-68
2021/08/21 09:57:13;;;;;;;2.38;1.48;;;19.30;80.50;;;;;;5018888;28;20025;-68
2021/08/21 09:59:43;;;;;;;3.17;1.50;;;19.50;81.10;;;;;;5019789;28;20036;-68
2021/08/21 10:02:11;;;;;;;2.58;1.60;;;19.50;79.90;;;;;;5032951;28;20125;-69
2021/08/21 10:04:41;;;;;;;4.70;1.40;;;19.70;77.70;;;;;;5040759;28;20468;-68
2021/08/21 10:07:09;;;;;;;4.17;1.40;;;20.40;80.10;;;;;;5036720;28;20067;-69
2021/08/21 10:09:37;;;;;;;5.82;1.50;;;20.60;77.40;;;;;;5037935;28;20345;-69
2021/08/21 10:12:05;;;;;;;4.60;1.73;;;20.60;76.50;;;;;;5035396;28;20406;-67
2021/08/21 10:14:31;;;;;;;3.05;1.60;;;20.80;76.20;;;;;;5030960;28;20067;-69
2021/08/21 10:16:57;;;;;;;2.33;1.20;;;20.80;75.50;;;;;;5042330;28;20073;-70
2021/08/21 10:19:24;;;;;;;3.08;1.55;;;21.00;76.20;;;;;;5034775;28;20025;-69
2021/08/21 10:21:57;;;;;;;3.67;1.60;;;21.20;76.80;;;;;;5037926;28;20028;-68
2021/08/21 10:24:30;;;;;;;3.50;1.40;;;21.10;76.80;;;;;;5032165;28;20029;-69
2021/08/21 10:27:13;;;;;;;2.83;1.50;;;21.00;76.20;;;;;;5035131;28;20566;-69
2021/08/21 10:29:39;;;;;;;5.72;2.10;;;21.20;72.50;;;;;;5041784;28;20146;-69
2021/08/21 10:32:25;;;;;;;4.45;1.70;;;21.20;72.60;;;;;;5042975;28;20067;-69
2021/08/21 10:34:52;;;;;;;6.72;2.13;;;21.20;74.50;;;;;;5047248;28;20033;-69
2021/08/21 10:37:38;;;;;;;4.80;2.25;;;20.90;73.40;;;;;;5039343;28;20086;-69
2021/08/21 10:40:25;;;;;;;5.15;2.58;;;21.00;75.10;;;;;;5034465;28;20120;-67
2021/08/21 10:42:55;;;;;;;6.97;2.75;;;21.20;73.40;;;;;;5040918;28;20094;-69
2021/08/21 10:45:39;;;;;;;6.78;2.92;;;21.30;75.20;;;;;;5046572;28;20032;-69
2021/08/21 10:48:06;;;;;;;5.55;2.60;;;21.20;73.50;;;;;;5035473;28;20097;-69
2021/08/21 10:50:40;;;;;;;5.72;3.33;;;20.90;74.70;;;;;;5033528;28;20337;-68
2021/08/21 10:53:07;;;;;;;6.18;3.05;;;20.80;73.70;;;;;;5039364;28;20052;-68
2021/08/21 10:55:41;;;;;;;6.57;3.72;;;21.20;75.40;;;;;;5043518;28;20552;-68
2021/08/21 10:58:18;;;;;;;9.05;4.35;;;21.50;76.00;;;;;;5030084;28;20440;-67
2021/08/21 11:00:47;;;;;;;6.85;4.00;;;21.20;72.70;;;;;;5039301;28;20041;-66
2021/08/21 11:03:23;;;;;;;6.60;3.55;;;21.00;74.30;;;;;;5032790;28;20057;-66
2021/08/21 11:06:15;;;;;;;9.40;5.30;;;21.50;75.80;;;;;;5026910;28;20113;-65
2021/08/21 11:08:40;;;;;;;8.82;3.83;;;21.80;75.90;;;;;;5040360;28;20072;-66
2021/08/21 11:11:15;;;;;;;7.13;4.05;;;21.70;72.10;;;;;;5036698;28;20057;-66
2021/08/21 11:14:02;;;;;;;7.57;4.43;;;21.80;73.00;;;;;;5038898;28;20021;-69
2021/08/21 11:16:51;;;;;;;7.05;3.92;;;21.80;72.30;;;;;;5031671;28;20094;-66
2021/08/21 11:19:25;;;;;;;12.77;6.35;;;22.00;71.50;;;;;;5026017;28;20420;-66
2021/08/21 11:22:12;;;;;;;9.52;4.15;;;22.00;73.00;;;;;;5025673;28;20026;-66
2021/08/21 11:24:58;;;;;;;9.20;5.47;;;21.90;74.40;;;;;;5038645;28;20115;-66
2021/08/21 11:27:29;;;;;;;8.52;4.72;;;21.50;72.20;;;;;;5033707;28;20086;-67
2021/08/21 11:30:07;;;;;;;8.27;4.90;;;21.90;72.60;;;;;;5037521;28;20086;-66
2021/08/21 11:32:39;;;;;;;9.70;4.90;;;22.10;74.80;;;;;;5035560;28;20449;-66
2021/08/21 11:35:06;;;;;;;8.93;4.57;;;22.20;73.50;;;;;;5039655;28;20029;-66
2021/08/21 11:37:34;;;;;;;9.43;5.53;;;22.00;76.10;;;;;;5031849;28;20033;-66
2021/08/21 11:40:00;;;;;;;12.90;5.55;;;21.90;71.30;;;;;;5035503;28;20624;-66
2021/08/21 11:42:55;;;;;;;8.05;5.32;;;22.10;71.00;;;;;;5029741;28;20147;-66
2021/08/21 11:45:22;;;;;;;9.60;5.80;;;22.50;70.80;;;;;;5034650;28;20487;-67
2021/08/21 11:47:51;;;;;;;8.90;5.63;;;23.20;68.90;;;;;;5034678;28;20033;-67
2021/08/21 11:50:22;;;;;;;10.32;5.32;;;23.30;69.30;;;;;;5036591;28;20178;-67
2021/08/21 11:52:50;;;;;;;9.80;5.65;;;23.30;67.60;;;;;;5027022;28;20033;-67
2021/08/21 11:55:17;;;;;;;8.57;5.80;;;23.80;68.20;;;;;;5043535;28;20528;-66
2021/08/21 11:57:47;;;;;;;11.45;5.18;;;24.10;67.30;;;;;;5034738;28;20114;-67
2021/08/21 12:00:14;;;;;;;;;;;23.90;65.40;;;;;;5038043;28;20043;-66
2021/08/21 12:02:51;;;;;;;9.30;4.88;;;23.70;66.90;;;;;;5026534;28;19917;-67
2021/08/21 12:05:33;;;;;;;9.60;5.18;;;23.70;67.50;;;;;;5039897;28;20446;-66
2021/08/21 12:08:12;;;;;;;10.25;6.65;;;23.70;66.70;;;;;;5031147;28;20080;-66
2021/08/21 12:10:47;;;;;;;10.90;5.75;;;23.10;69.00;;;;;;5041622;28;20083;-67
2021/08/21 12:13:15;;;;;;;6.38;4.32;;;23.70;68.40;;;;;;5023746;28;20109;-66
2021/08/21 12:15:42;;;;;;;7.63;5.00;;;23.30;66.90;;;;;;5035835;28;20043;-67
2021/08/21 12:18:09;;;;;;;7.13;4.35;;;23.30;69.00;;;;;;5031909;28;20095;-67
2021/08/21 12:20:40;;;;;;;8.02;4.15;;;23.10;69.50;;;;;;5034549;28;20098;-67
2021/08/21 12:23:09;;;;;;;10.70;4.82;;;23.50;69.20;;;;;;5031049;28;20035;-68
2021/08/21 12:25:57;;;;;;;7.13;4.22;;;23.30;68.50;;;;;;5039488;28;20040;-67
2021/08/21 12:28:33;;;;;;;9.93;4.50;;;23.40;65.80;;;;;;5034251;28;20025;-68
2021/08/21 12:31:04;;;;;;;8.25;5.45;;;23.90;68.30;;;;;;5032300;28;20082;-68
2021/08/21 12:33:38;;;;;;;8.02;4.93;;;23.90;66.90;;;;;;5035942;28;20447;-68
2021/08/21 12:36:21;;;;;;;7.72;5.22;;;24.20;64.80;;;;;;5032242;28;20162;-68
2021/08/21 12:39:08;;;;;;;7.30;4.45;;;23.70;65.00;;;;;;5026561;28;20017;-68
2021/08/21 12:42:00;;;;;;;8.48;4.88;;;23.80;64.80;;;;;;5033520;28;20021;-67